Time;durP1;ratioP1;P1;durP2;ratioP2;P2;SDS_P1;SDS_P2;PMS_P1;PMS_P2;Temp;Humidity;BMP_temperature;BMP_pressure;BME280_temperature;BME280_humidity;BME280_pressure;Samples;Min_cycle;Max_cycle;Signal;HPM_P1;HPM_P2
2021/08/27 00:00:38;;;;;;;;;;;;;;;;;;5094862;28;19923;-67
2021/08/27 00:03:22;;;;;;;;;;;;;;;;;;5094847;28;19919;-68
2021/08/27 00:06:06;;;;;;;;;;;;;;;;;;5094757;28;19919;-68
2021/08/27 00:08:50;;;;;;;;;;;;;;;;;;5082145;28;19934;-67
2021/08/27 00:11:35;;;;;;;;;;;;;;;;;;5094631;28;19920;-68
2021/08/27 00:14:20;;;;;;;;;;;;;;;;;;5094640;28;19919;-68
2021/08/27 00:17:04;;;;;;;;;;;;;;;;;;5094595;28;19920;-68
2021/08/27 00:19:48;;;;;;;;;;;;;;;;;;5093038;28;19923;-67
2021/08/27 00:22:33;;;;;;;;;;;;;;;;;;5094371;28;19935;-67
2021/08/27 00:25:17;;;;;;;;;;;;;;;;;;5094367;28;20287;-67
2021/08/27 00:28:05;;;;;;;;;;;;;;;;;;5094269;28;19923;-67
2021/08/27 00:30:49;;;;;;;;;;;;;;;;;;5088856;28;19919;-67
2021/08/27 00:33:33;;;;;;;;;;;;;;;;;;5094042;28;20407;-67
2021/08/27 00:36:17;;;;;;;;;;;;;;;;;;5073912;28;19919;-68
2021/08/27 00:39:01;;;;;;;;;;;;;;;;;;5091663;28;19923;-68
2021/08/27 00:41:46;;;;;;;;;;;;;;;;;;5091779;28;19930;-67
2021/08/27 00:44:30;;;;;;;;;;;;;;;;;;5093829;28;19919;-68
2021/08/27 00:47:14;;;;;;;;;;;;;;;;;;5093871;28;19998;-69
2021/08/27 00:49:59;;;;;;;;;;;;;;;;;;5093925;28;19919;-68
2021/08/27 00:52:43;;;;;;;;;;;;;;;;;;5093539;28;20379;-69
2021/08/27 00:55:27;;;;;;;;;;;;;;;;;;5093741;28;19927;-69
2021/08/27 00:58:11;;;;;;;;;;;;;;;;;;5093808;28;19991;-70
2021/08/27 01:00:56;;;;;;;;;;;;;;;;;;5093531;28;19923;-69
2021/08/27 01:03:41;;;;;;;;;;;;;;;;;;5093742;28;19923;-69
2021/08/27 01:06:26;;;;;;;;;;;;;;;;;;5093554;28;19919;-69
2021/08/27 01:09:11;;;;;;;;;;;;;;;;;;5093596;28;20297;-69
2021/08/27 01:11:56;;;;;;;;;;;;;;;;;;5093471;28;20379;-69
2021/08/27 01:14:40;;;;;;;;;;;;;;;;;;5093587;28;19919;-69
2021/08/27 01:17:27;;;;;;;;;;;;;;;;;;5093337;28;20283;-69
2021/08/27 01:20:11;;;;;;;;;;;;;;;;;;5093398;28;19994;-69
2021/08/27 01:22:56;;;;;;;;;;;;;;;;;;5093159;28;20391;-69
2021/08/27 01:25:41;;;;;;;;;;;;;;;;;;5092992;28;19920;-69
2021/08/27 01:28:25;;;;;;;;;;;;;;;;;;5092966;28;20288;-67
2021/08/27 01:31:09;;;;;;;;;;;;;;;;;;5097990;28;20387;-69
2021/08/27 01:33:54;;;;;;;;;;;;;;;;;;5072729;28;19919;-68
2021/08/27 01:36:39;;;;;;;;;;;;;;;;;;5072748;28;19920;-68
2021/08/27 01:39:23;;;;;;;;;;;;;;;;;;5090882;28;19919;-68
2021/08/27 01:42:07;;;;;;;;;;;;;;;;;;5085344;28;20291;-67
2021/08/27 01:44:51;;;;;;;;;;;;;;;;;;5091798;28;19920;-68
2021/08/27 01:47:36;;;;;;;;;;;;;;;;;;5089597;28;19919;-67
2021/08/27 01:50:21;;;;;;;;;;;;;;;;;;5088468;28;20299;-68
2021/08/27 01:53:06;;;;;;;;;;;;;;;;;;5089708;28;19919;-68
2021/08/27 01:55:50;;;;;;;;;;;;;;;;;;5077576;28;19920;-69
2021/08/27 01:58:34;;;;;;;;;;;;;;;;;;5089078;28;19920;-68
2021/08/27 02:01:19;;;;;;;;;;;;;;;;;;5091980;28;19927;-67
2021/08/27 02:04:04;;;;;;;;;;;;;;;;;;5083731;28;19919;-66
2021/08/27 02:06:48;;;;;;;;;;;;;;;;;;5091528;28;19919;-68
2021/08/27 02:09:32;;;;;;;;;;;;;;;;;;5091307;28;19939;-68
2021/08/27 02:12:16;;;;;;;;;;;;;;;;;;5096200;28;20264;-69
2021/08/27 02:15:00;;;;;;;;;;;;;;;;;;5092206;28;19920;-67
2021/08/27 02:17:44;;;;;;;;;;;;;;;;;;5092114;28;19919;-68
2021/08/27 02:20:29;;;;;;;;;;;;;;;;;;5085151;28;19923;-68
2021/08/27 02:23:13;;;;;;;;;;;;;;;;;;5092379;28;19919;-69
2021/08/27 02:25:58;;;;;;;;;;;;;;;;;;5080909;28;19919;-69
2021/08/27 02:28:43;;;;;;;;;;;;;;;;;;5092426;28;19923;-69
2021/08/27 02:31:27;;;;;;;;;;;;;;;;;;5092156;28;19919;-69
2021/08/27 02:34:11;;;;;;;;;;;;;;;;;;5092207;28;19923;-69
2021/08/27 02:36:56;;;;;;;;;;;;;;;;;;5092297;28;19919;-69
2021/08/27 02:39:40;;;;;;;;;;;;;;;;;;5092291;28;19920;-69
2021/08/27 02:42:27;;;;;;;;;;;;;;;;;;5095665;28;19923;-67
2021/08/27 02:45:12;;;;;;;;;;;;;;;;;;5081614;28;19935;-68
2021/08/27 02:47:56;;;;;;;;;;;;;;;;;;5095610;28;19919;-67
2021/08/27 02:50:40;;;;;;;;;;;;;;;;;;5093139;28;19919;-67
2021/08/27 02:53:24;;;;;;;;;;;;;;;;;;5095879;28;19919;-66
2021/08/27 02:56:08;;;;;;;;;;;;;;;;;;5094339;28;19934;-67
2021/08/27 02:58:53;;;;;;;;;;;;;;;;;;5096119;28;19919;-67
2021/08/27 03:01:37;;;;;;;;;;;;;;;;;;5095900;28;19993;-68
2021/08/27 03:04:22;;;;;;;;;;;;;;;;;;5075742;28;20418;-68
2021/08/27 03:07:06;;;;;;;;;;;;;;;;;;5077483;28;20391;-70
2021/08/27 03:09:56;;;;;;;;;;;;;;;;;;5084786;28;19919;-69
2021/08/27 03:12:48;;;;;;;;;;;;;;;;;;5093084;28;19932;-69
2021/08/27 03:15:33;;;;;;;;;;;;;;;;;;5079673;28;19920;-67
2021/08/27 03:18:21;;;;;;;;;;;;;;;;;;5081097;28;19924;-65
2021/08/27 03:21:06;;;;;;;;;;;;;;;;;;5075377;28;19923;-66
2021/08/27 03:23:50;;;;;;;;;;;;;;;;;;5075286;28;20284;-66
2021/08/27 03:26:35;;;;;;;;;;;;;;;;;;5075200;28;19923;-66
2021/08/27 03:29:19;;;;;;;;;;;;;;;;;;5080944;28;19919;-68
2021/08/27 03:32:03;;;;;;;;;;;;;;;;;;5080060;28;19919;-67
2021/08/27 03:34:48;;;;;;;;;;;;;;;;;;5075157;28;20414;-68
2021/08/27 03:37:32;;;;;;;;;;;;;;;;;;5080918;28;19919;-65
2021/08/27 03:40:16;;;;;;;;;;;;;;;;;;5075022;28;20399;-65
2021/08/27 03:43:01;;;;;;;;;;;;;;;;;;5076798;28;19924;-65
2021/08/27 03:45:45;;;;;;;;;;;;;;;;;;5075055;28;19919;-64
2021/08/27 03:48:30;;;;;;;;;;;;;;;;;;5074807;28;19920;-65
2021/08/27 03:51:14;;;;;;;;;;;;;;;;;;5074891;28;19927;-64
2021/08/27 03:53:58;;;;;;;;;;;;;;;;;;5074353;28;19935;-63
2021/08/27 03:56:42;;;;;;;;;;;;;;;;;;5074806;28;19924;-65
2021/08/27 03:59:26;;;;;;;;;;;;;;;;;;5074683;28;19936;-65
2021/08/27 04:02:10;;;;;;;;;;;;;;;;;;5074552;28;19924;-64
2021/08/27 04:04:54;;;;;;;;;;;;;;;;;;5075544;28;19919;-71
2021/08/27 04:07:38;;;;;;;;;;;;;;;;;;5094223;28;19919;-70
2021/08/27 04:10:23;;;;;;;;;;;;;;;;;;5091866;28;19982;-72
2021/08/27 04:13:07;;;;;;;;;;;;;;;;;;5074420;28;19927;-65
2021/08/27 04:15:52;;;;;;;;;;;;;;;;;;5093408;28;19923;-71
2021/08/27 04:18:36;;;;;;;;;;;;;;;;;;5094594;28;19919;-69
2021/08/27 04:21:20;;;;;;;;;;;;;;;;;;5094400;28;19923;-69
2021/08/27 04:24:05;;;;;;;;;;;;;;;;;;5094794;28;19919;-71
2021/08/27 04:26:49;;;;;;;;;;;;;;;;;;5094302;28;19923;-69
2021/08/27 04:29:33;;;;;;;;;;;;;;;;;;5100226;28;19919;-69
2021/08/27 04:32:18;;;;;;;;;;;;;;;;;;5094228;28;19935;-69
2021/08/27 04:35:04;;;;;;;;;;;;;;;;;;5094238;28;19936;-69
2021/08/27 04:37:48;;;;;;;;;;;;;;;;;;5094221;28;20280;-70
2021/08/27 04:40:32;;;;;;;;;;;;;;;;;;5093985;28;19923;-70
2021/08/27 04:43:17;;;;;;;;;;;;;;;;;;5094066;28;20387;-69
2021/08/27 04:46:01;;;;;;;;;;;;;;;;;;5093974;28;19979;-70
2021/08/27 04:48:46;;;;;;;;;;;;;;;;;;5093986;28;19935;-69
2021/08/27 04:51:30;;;;;;;;;;;;;;;;;;5093880;28;19919;-70
2021/08/27 04:54:14;;;;;;;;;;;;;;;;;;5093551;28;19919;-69
2021/08/27 04:56:58;;;;;;;;;;;;;;;;;;5093445;28;20291;-70
2021/08/27 04:59:45;;;;;;;;;;;;;;;;;;5093824;28;19923;-69
2021/08/27 05:02:29;;;;;;;;;;;;;;;;;;5096959;28;19923;-70
2021/08/27 05:05:14;;;;;;;;;;;;;;;;;;5093339;28;19920;-69
2021/08/27 05:07:58;;;;;;;;;;;;;;;;;;5073424;28;20403;-70
2021/08/27 05:10:42;;;;;;;;;;;;;;;;;;5073274;28;19923;-69
2021/08/27 05:13:27;;;;;;;;;;;;;;;;;;5073234;28;19920;-69
2021/08/27 05:16:12;;;;;;;;;;;;;;;;;;5073127;28;19931;-69
2021/08/27 05:18:57;;;;;;;;;;;;;;;;;;5073184;28;20395;-69
2021/08/27 05:21:41;;;;;;;;;;;;;;;;;;5085119;28;19943;-69
2021/08/27 05:24:26;;;;;;;;;;;;;;;;;;5093730;28;19915;-69
2021/08/27 05:27:10;;;;;;;;;;;;;;;;;;5093163;28;20288;-70
2021/08/27 05:29:54;;;;;;;;;;;;;;;;;;5093268;28;19945;-69
2021/08/27 05:32:38;;;;;;;;;;;;;;;;;;5097042;28;19931;-69
2021/08/27 05:35:22;;;;;;;;;;;;;;;;;;5093197;28;20406;-68
2021/08/27 05:38:06;;;;;;;;;;;;;;;;;;5092892;28;20025;-69
2021/08/27 05:40:51;;;;;;;;;;;;;;;;;;5088946;28;19927;-70
2021/08/27 05:43:35;;;;;;;;;;;;;;;;;;5093227;28;19919;-72
2021/08/27 05:46:19;;;;;;;;;;;;;;;;;;5092759;28;20295;-70
2021/08/27 05:49:03;;;;;;;;;;;;;;;;;;5092954;28;19919;-70
2021/08/27 05:51:47;;;;;;;;;;;;;;;;;;5097993;28;19919;-69
2021/08/27 05:54:32;;;;;;;;;;;;;;;;;;5092814;28;19923;-70
2021/08/27 05:57:16;;;;;;;;;;;;;;;;;;5098478;28;19935;-69
2021/08/27 06:00:00;;;;;;;;;;;;;;;;;;5075728;28;20280;-69
2021/08/27 06:02:46;;;;;;;;;;;;;;;;;;5072355;28;19923;-69
2021/08/27 06:05:30;;;;;;;;;;;;;;;;;;5072403;28;19935;-69
2021/08/27 06:08:14;;;;;;;;;;;;;;;;;;5072345;28;19919;-69
2021/08/27 06:10:58;;;;;;;;;;;;;;;;;;5072392;28;19920;-68
2021/08/27 06:13:43;;;;;;;;;;;;;;;;;;5073393;28;19919;-69
2021/08/27 06:16:27;;;;;;;;;;;;;;;;;;5092412;28;19923;-68
2021/08/27 06:19:11;;;;;;;;;;;;;;;;;;5092550;28;19943;-69
2021/08/27 06:21:57;;;;;;;;;;;;;;;;;;5092313;28;19923;-69
2021/08/27 06:24:41;;;;;;;;;;;;;;;;;;5092822;28;19924;-69
2021/08/27 06:27:25;;;;;;;;;;;;;;;;;;5092310;28;19990;-69
2021/08/27 06:30:10;;;;;;;;;;;;;;;;;;5092671;28;19919;-69
2021/08/27 06:32:54;;;;;;;;;;;;;;;;;;5092277;28;20395;-69
2021/08/27 06:35:38;;;;;;;;;;;;;;;;;;5098194;28;19919;-69
2021/08/27 06:38:24;;;;;;;;;;;;;;;;;;5092325;28;19919;-69
2021/08/27 06:41:09;;;;;;;;;;;;;;;;;;5092419;28;19923;-69
2021/08/27 06:43:54;;;;;;;;;;;;;;;;;;5092186;28;19919;-69
2021/08/27 06:46:38;;;;;;;;;;;;;;;;;;5092235;28;19919;-69
2021/08/27 06:49:23;;;;;;;;;;;;;;;;;;5092320;28;19919;-67
2021/08/27 06:52:07;;;;;;;;;;;;;;;;;;5092013;28;19919;-70
2021/08/27 06:54:51;;;;;;;;;;;;;;;;;;5092276;28;19923;-70
2021/08/27 06:57:36;;;;;;;;;;;;;;;;;;5092126;28;19920;-69
2021/08/27 07:00:20;;;;;;;;;;;;;;;;;;5092070;28;19919;-70
2021/08/27 07:03:04;;;;;;;;;;;;;;;;;;5071900;28;19919;-69
2021/08/27 07:05:48;;;;;;;;;;;;;;;;;;5072194;28;19920;-69
2021/08/27 07:08:32;;;;;;;;;;;;;;;;;;5071783;28;20302;-69
2021/08/27 07:11:17;;;;;;;;;;;;;;;;;;5071871;28;20392;-69
2021/08/27 07:14:03;;;;;;;;;;;;;;;;;;5071998;28;19920;-70
2021/08/27 07:16:47;;;;;;;;;;;;;;;;;;5077828;28;19935;-69
2021/08/27 07:19:31;;;;;;;;;;;;;;;;;;5071833;28;19923;-69
2021/08/27 07:22:15;;;;;;;;;;;;;;;;;;5071459;28;19923;-68
2021/08/27 07:25:00;;;;;;;;;;;;;;;;;;5071703;28;20277;-67
2021/08/27 07:27:45;;;;;;;;;;;;;;;;;;5071536;28;19924;-65
2021/08/27 07:30:29;;;;;;;;;;;;;;;;;;5074920;28;19919;-67
2021/08/27 07:33:13;;;;;;;;;;;;;;;;;;5075179;28;19920;-68
2021/08/27 07:35:57;;;;;;;;;;;;;;;;;;5081020;28;19935;-70
2021/08/27 07:38:42;;;;;;;;;;;;;;;;;;5075169;28;19923;-68
2021/08/27 07:41:27;;;;;;;;;;;;;;;;;;5075157;28;19924;-68
2021/08/27 07:44:11;;;;;;;;;;;;;;;;;;5074916;28;19931;-68
2021/08/27 07:46:56;;;;;;;;;;;;;;;;;;5075022;28;19919;-69
2021/08/27 07:49:40;;;;;;;;;;;;;;;;;;5074904;28;20221;-69
2021/08/27 07:52:24;;;;;;;;;;;;;;;;;;5074740;28;19939;-68
2021/08/27 07:55:08;;;;;;;;;;;;;;;;;;5081405;28;20319;-68
2021/08/27 07:57:54;;;;;;;;;;;;;;;;;;5115042;28;19935;-68
2021/08/27 08:00:39;;;;;;;;;;;;;;;;;;5114666;28;19919;-68
2021/08/27 08:03:23;;;;;;;;;;;;;;;;;;5094712;28;19919;-68
2021/08/27 08:06:07;;;;;;;;;;;;;;;;;;5094763;28;19919;-68
2021/08/27 08:08:51;;;;;;;;;;;;;;;;;;5094783;28;19918;-67
2021/08/27 08:11:35;;;;;;;;;;;;;;;;;;5094696;28;19919;-68
2021/08/27 08:14:20;;;;;;;;;;;;;;;;;;5094537;28;19978;-68
2021/08/27 08:17:04;;;;;;;;;;;;;;;;;;5100433;28;19935;-68
2021/08/27 08:19:49;;;;;;;;;;;;;;;;;;5094325;28;19919;-68
2021/08/27 08:22:33;;;;;;;;;;;;;;;;;;5076578;28;19940;-68
2021/08/27 08:25:17;;;;;;;;;;;;;;;;;;5094293;28;20398;-68
2021/08/27 08:28:02;;;;;;;;;;;;;;;;;;5094393;28;20330;-69
2021/08/27 08:30:46;;;;;;;;;;;;;;;;;;5094321;28;19920;-68
2021/08/27 08:33:30;;;;;;;;;;;;;;;;;;5094598;28;19919;-68
2021/08/27 08:36:15;;;;;;;;;;;;;;;;;;5094268;28;19935;-67
2021/08/27 08:39:00;;;;;;;;;;;;;;;;;;5094038;28;19919;-67
2021/08/27 08:41:44;;;;;;;;;;;;;;;;;;5092871;28;19923;-68
2021/08/27 08:44:28;;;;;;;;;;;;;;;;;;5100137;28;19915;-70
2021/08/27 08:47:12;;;;;;;;;;;;;;;;;;5093918;28;20390;-69
2021/08/27 08:49:56;;;;;;;;;;;;;;;;;;5093892;28;19935;-68
2021/08/27 08:52:41;;;;;;;;;;;;;;;;;;5096712;28;19935;-68
2021/08/27 08:55:25;;;;;;;;;;;;;;;;;;5093687;28;19965;-69
2021/08/27 08:58:10;;;;;;;;;;;;;;;;;;5093757;28;19935;-68
2021/08/27 09:00:54;;;;;;;;;;;;;;;;;;5093508;28;19923;-69
2021/08/27 09:03:38;;;;;;;;;;;;;;;;;;5093511;28;19920;-68
2021/08/27 09:06:22;;;;;;;;;;;;;;;;;;5093265;28;19923;-69
2021/08/27 09:09:06;;;;;;;;;;;;;;;;;;5093559;28;19919;-68
2021/08/27 09:11:50;;;;;;;;;;;;;;;;;;5093464;28;19927;-68
2021/08/27 09:14:35;;;;;;;;;;;;;;;;;;5093392;28;19935;-70
2021/08/27 09:17:19;;;;;;;;;;;;;;;;;;5093381;28;20391;-70
2021/08/27 09:20:04;;;;;;;;;;;;;;;;;;5082452;28;19923;-69
2021/08/27 09:22:48;;;;;;;;;;;;;;;;;;5093294;28;19923;-70
2021/08/27 09:25:33;;;;;;;;;;;;;;;;;;5092887;28;19919;-69
2021/08/27 09:28:17;;;;;;;;;;;;;;;;;;5093239;28;19928;-68
2021/08/27 09:31:01;;;;;;;;;;;;;;;;;;5093102;28;19920;-69
2021/08/27 09:33:46;;;;;;;;;;;;;;;;;;5093281;28;19919;-69
2021/08/27 09:36:30;;;;;;;;;;;;;;;;;;5099815;28;19974;-70
2021/08/27 09:39:16;;;;;;;;;;;;;;;;;;5093061;28;19920;-68
2021/08/27 09:42:00;;;;;;;;;;;;;;;;;;5093982;28;19927;-69
2021/08/27 09:44:44;;;;;;;;;;;;;;;;;;5092908;28;20394;-68
2021/08/27 09:47:28;;;;;;;;;;;;;;;;;;5098688;28;19935;-69
2021/08/27 09:50:12;;;;;;;;;;;;;;;;;;5072908;28;19931;-68
2021/08/27 09:52:56;;;;;;;;;;;;;;;;;;5075285;28;19936;-70
2021/08/27 09:55:41;;;;;;;;;;;;;;;;;;5077141;28;19919;-68
2021/08/27 09:58:25;;;;;;;;;;;;;;;;;;5092608;28;19920;-67
2021/08/27 10:01:10;;;;;;;;;;;;;;;;;;5092611;28;20399;-70
2021/08/27 10:03:54;;;;;;;;;;;;;;;;;;5092877;28;19919;-69
2021/08/27 10:06:38;;;;;;;;;;;;;;;;;;5092556;28;20284;-69
2021/08/27 10:09:23;;;;;;;;;;;;;;;;;;5092516;28;19927;-68
2021/08/27 10:12:07;;;;;;;;;;;;;;;;;;5092409;28;19920;-68
2021/08/27 10:14:51;;;;;;;;;;;;;;;;;;5092405;28;19919;-69
2021/08/27 10:17:37;;;;;;;;;;;;;;;;;;5092179;28;19919;-69
2021/08/27 10:20:21;;;;;;;;;;;;;;;;;;5097302;28;19930;-67
2021/08/27 10:23:05;;;;;;;;;;;;;;;;;;5092159;28;19923;-68
2021/08/27 10:25:51;;;;;;;;;;;;;;;;;;5092370;28;19919;-68
2021/08/27 10:28:35;;;;;;;;;;;;;;;;;;5091552;28;19928;-67
2021/08/27 10:31:19;;;;;;;;;;;;;;;;;;5085433;28;19935;-68
2021/08/27 10:34:03;;;;;;;;;;;;;;;;;;5091700;28;19919;-68
2021/08/27 10:36:47;;;;;;;;;;;;;;;;;;5092199;28;19919;-69
2021/08/27 10:39:31;;;;;;;;;;;;;;;;;;5092098;28;20303;-68
2021/08/27 10:42:16;;;;;;;;;;;;;;;;;;5096027;28;20311;-69
2021/08/27 10:45:01;;;;;;;;;;;;;;;;;;5092242;28;19920;-68
2021/08/27 10:47:45;;;;;;;;;;;;;;;;;;5092187;28;20390;-69
2021/08/27 10:50:29;;;;;;;;;;;;;;;;;;5092213;28;20390;-69
2021/08/27 10:53:14;;;;;;;;;;;;;;;;;;5092019;28;19919;-70
2021/08/27 10:55:59;;;;;;;;;;;;;;;;;;5097761;28;19954;-70
2021/08/27 10:58:45;;;;;;;;;;;;;;;;;;5092116;28;20279;-68
2021/08/27 11:01:31;;;;;;;;;;;;;;;;;;5092178;28;20291;-70
2021/08/27 11:04:16;;;;;;;;;;;;;;;;;;5093565;28;20375;-67
2021/08/27 11:07:05;;;;;;;;;;;;;;;;;;5095996;28;19919;-67
2021/08/27 11:09:50;;;;;;;;;;;;;;;;;;5095849;28;19919;-67
2021/08/27 11:12:34;;;;;;;;;;;;;;;;;;5095717;28;19923;-69
2021/08/27 11:15:19;;;;;;;;;;;;;;;;;;5095862;28;19926;-69
2021/08/27 11:18:03;;;;;;;;;;;;;;;;;;5090180;28;19919;-70
2021/08/27 11:20:47;;;;;;;;;;;;;;;;;;5095678;28;19919;-68
2021/08/27 11:23:31;;;;;;;;;;;;;;;;;;5095540;28;19939;-68
2021/08/27 11:26:17;;;;;;;;;;;;;;;;;;5095369;28;19923;-69
2021/08/27 11:29:02;;;;;;;;;;;;;;;;;;5095356;28;19923;-68
2021/08/27 11:31:46;;;;;;;;;;;;;;;;;;5075094;28;19919;-70
2021/08/27 11:34:30;;;;;;;;;;;;;;;;;;5078793;28;19920;-70
2021/08/27 11:37:14;;;;;;;;;;;;;;;;;;5095376;28;19919;-69
2021/08/27 11:39:59;;;;;;;;;;;;;;;;;;5095227;28;19935;-70
2021/08/27 11:42:44;;;;;;;;;;;;;;;;;;5074942;28;19923;-71
2021/08/27 11:45:28;;;;;;;;;;;;;;;;;;5080691;28;19920;-69
2021/08/27 11:48:13;;;;;;;;;;;;;;;;;;5082848;28;20418;-69
2021/08/27 11:50:57;;;;;;;;;;;;;;;;;;5095084;28;19927;-67
2021/08/27 11:53:41;;;;;;;;;;;;;;;;;;5095035;28;20070;-69
2021/08/27 11:56:26;;;;;;;;;;;;;;;;;;5095000;28;20426;-68
2021/08/27 11:59:11;;;;;;;;;;;;;;;;;;5101023;28;20382;-67
2021/08/27 12:01:56;;;;;;;;;;;;;;;;;;5094833;28;19923;-69
2021/08/27 12:04:40;;;;;;;;;;;;;;;;;;5094824;28;19919;-69
2021/08/27 12:07:27;;;;;;;;;;;;;;;;;;5094851;28;19927;-68
2021/08/27 12:10:12;;;;;;;;;;;;;;;;;;5094679;28;19927;-67
2021/08/27 12:12:56;;;;;;;;;;;;;;;;;;5094686;28;19920;-68
2021/08/27 12:15:42;;;;;;;;;;;;;;;;;;5094356;28;19919;-66
2021/08/27 12:18:26;;;;;;;;;;;;;;;;;;5094712;28;20279;-66
2021/08/27 12:21:10;;;;;;;;;;;;;;;;;;5094410;28;19920;-65
2021/08/27 12:23:55;;;;;;;;;;;;;;;;;;5094285;28;19919;-65
2021/08/27 12:26:39;;;;;;;;;;;;;;;;;;5094235;28;19939;-66
2021/08/27 12:29:23;;;;;;;;;;;;;;;;;;5094424;28;19919;-65
2021/08/27 12:32:12;;;;;;;;;;;;;;;;;;5094282;28;19919;-66
2021/08/27 12:34:56;;;;;;;;;;;;;;;;;;5094176;28;20391;-66
2021/08/27 12:37:40;;;;;;;;;;;;;;;;;;5100164;28;19919;-67
2021/08/27 12:40:26;;;;;;;;;;;;;;;;;;5094454;28;19919;-65
2021/08/27 12:43:10;;;;;;;;;;;;;;;;;;5094323;28;19923;-66
2021/08/27 12:45:54;;;;;;;;;;;;;;;;;;5094570;28;20284;-66
2021/08/27 12:48:38;;;;;;;;;;;;;;;;;;5094262;28;19919;-66
2021/08/27 12:51:23;;;;;;;;;;;;;;;;;;5094103;28;19923;-65
2021/08/27 12:54:07;;;;;;;;;;;;;;;;;;5099993;28;19935;-66
2021/08/27 12:56:51;;;;;;;;;;;;;;;;;;5093799;28;19920;-66
2021/08/27 12:59:35;;;;;;;;;;;;;;;;;;5093890;28;20021;-66
2021/08/27 13:02:20;;;;;;;;;;;;;;;;;;5093662;28;19923;-66
2021/08/27 13:05:08;;;;;;;;;;;;;;;;;;5099476;28;19926;-66
2021/08/27 13:07:52;;;;;;;;;;;;;;;;;;5093751;28;19923;-66
2021/08/27 13:10:36;;;;;;;;;;;;;;;;;;5093632;28;19919;-66
2021/08/27 13:13:20;;;;;;;;;;;;;;;;;;5093583;28;19949;-66
2021/08/27 13:16:05;;;;;;;;;;;;;;;;;;5093859;28;19919;-64
2021/08/27 13:18:49;;;;;;;;;;;;;;;;;;5093571;28;19927;-67
2021/08/27 13:21:33;;;;;;;;;;;;;;;;;;5093207;28;19923;-67
2021/08/27 13:24:18;;;;;;;;;;;;;;;;;;5093767;28;20212;-66
2021/08/27 13:27:02;;;;;;;;;;;;;;;;;;5092607;28;19947;-66
2021/08/27 13:29:46;;;;;;;;;;;;;;;;;;5093309;28;19935;-66
2021/08/27 13:32:31;;;;;;;;;;;;;;;;;;5097403;28;20283;-66
2021/08/27 13:35:15;;;;;;;;;;;;;;;;;;5093195;28;19919;-66
2021/08/27 13:37:59;;;;;;;;;;;;;;;;;;5093344;28;19919;-66
2021/08/27 13:40:43;;;;;;;;;;;;;;;;;;5093015;28;19919;-65
2021/08/27 13:43:28;;;;;;;;;;;;;;;;;;5092881;28;19923;-65
2021/08/27 13:46:13;;;;;;;;;;;;;;;;;;5093073;28;19923;-66
2021/08/27 13:48:57;;;;;;;;;;;;;;;;;;5099616;28;19919;-65
2021/08/27 13:51:41;;;;;;;;;;;;;;;;;;5092795;28;19939;-66
2021/08/27 13:54:26;;;;;;;;;;;;;;;;;;5092851;28;19919;-66
2021/08/27 13:57:10;;;;;;;;;;;;;;;;;;5092715;28;20415;-66
2021/08/27 13:59:55;;;;;;;;;;;;;;;;;;5092837;28;19926;-66
2021/08/27 14:02:39;;;;;;;;;;;;;;;;;;5092515;28;19927;-66
2021/08/27 14:05:23;;;;;;;;;;;;;;;;;;5092692;28;19927;-66
2021/08/27 14:08:07;;;;;;;;;;;;;;;;;;5098661;28;19919;-65
2021/08/27 14:10:52;;;;;;;;;;;;;;;;;;5092676;28;20061;-66
2021/08/27 14:13:37;;;;;;;;;;;;;;;;;;5092369;28;19920;-66
2021/08/27 14:16:21;;;;;;;;;;;;;;;;;;5092589;28;19939;-66
2021/08/27 14:19:05;;;;;;;;;;;;;;;;;;5092452;28;19919;-66
2021/08/27 14:21:49;;;;;;;;;;;;;;;;;;5092260;28;19939;-67
2021/08/27 14:24:34;;;;;;;;;;;;;;;;;;5087202;28;19936;-66
2021/08/27 14:27:18;;;;;;;;;;;;;;;;;;5072149;28;19940;-65
2021/08/27 14:30:05;;;;;;;;;;;;;;;;;;5071745;28;19923;-66
2021/08/27 14:32:49;;;;;;;;;;;;;;;;;;5071833;28;19919;-64
2021/08/27 14:35:34;;;;;;;;;;;;;;;;;;5072038;28;19920;-65
2021/08/27 14:38:18;;;;;;;;;;;;;;;;;;5070719;28;19927;-65
2021/08/27 14:41:02;;;;;;;;;;;;;;;;;;5076287;28;19923;-66
2021/08/27 14:43:47;;;;;;;;;;;;;;;;;;5076123;28;19924;-65
2021/08/27 14:46:31;;;;;;;;;;;;;;;;;;5076254;28;19919;-65
2021/08/27 14:49:15;;;;;;;;;;;;;;;;;;5075975;28;19919;-66
2021/08/27 14:51:59;;;;;;;;;;;;;;;;;;5076013;28;19920;-66
2021/08/27 14:54:43;;;;;;;;;;;;;;;;;;5076263;28;19915;-65
2021/08/27 14:57:27;;;;;;;;;;;;;;;;;;5075971;28;19920;-66
2021/08/27 15:00:11;;;;;;;;;;;;;;;;;;5075883;28;20563;-66
2021/08/27 15:02:58;;;;;;;;;;;;;;;;;;5075700;28;19923;-65
2021/08/27 15:05:43;;;;;;;;;;;;;;;;;;5075696;28;20426;-67
2021/08/27 15:08:28;;;;;;;;;;;;;;;;;;5075706;28;20300;-66
2021/08/27 15:11:12;;;;;;;;;;;;;;;;;;5075636;28;19919;-66
2021/08/27 15:13:56;;;;;;;;;;;;;;;;;;5075540;28;19983;-66
2021/08/27 15:16:41;;;;;;;;;;;;;;;;;;5081238;28;19920;-65
2021/08/27 15:19:25;;;;;;;;;;;;;;;;;;5075895;28;19919;-65
2021/08/27 15:22:11;;;;;;;;;;;;;;;;;;5075350;28;19923;-65
2021/08/27 15:24:55;;;;;;;;;;;;;;;;;;5075403;28;19920;-65
2021/08/27 15:27:39;;;;;;;;;;;;;;;;;;5075226;28;19923;-67
2021/08/27 15:30:23;;;;;;;;;;;;;;;;;;5075265;28;19920;-65
2021/08/27 15:33:07;;;;;;;;;;;;;;;;;;5075075;28;20399;-65
2021/08/27 15:35:51;;;;;;;;;;;;;;;;;;5075290;28;19935;-65
2021/08/27 15:38:36;;;;;;;;;;;;;;;;;;5074956;28;20284;-65
2021/08/27 15:41:20;;;;;;;;;;;;;;;;;;5075111;28;19919;-66
2021/08/27 15:44:06;;;;;;;;;;;;;;;;;;5075382;28;19919;-66
2021/08/27 15:46:50;;;;;;;;;;;;;;;;;;5074973;28;19936;-66
2021/08/27 15:49:34;;;;;;;;;;;;;;;;;;5074415;28;20280;-65
2021/08/27 15:52:18;;;;;;;;;;;;;;;;;;5074987;28;19923;-65
2021/08/27 15:55:02;;;;;;;;;;;;;;;;;;5074870;28;19923;-66
2021/08/27 15:57:48;;;;;;;;;;;;;;;;;;5074715;28;19919;-68
2021/08/27 16:00:32;;;;;;;;;;;;;;;;;;5074615;28;19927;-68
2021/08/27 16:03:16;;;;;;;;;;;;;;;;;;5087062;28;19939;-66
2021/08/27 16:06:00;;;;;;;;;;;;;;;;;;5100717;28;19919;-67
2021/08/27 16:08:45;;;;;;;;;;;;;;;;;;5094745;28;19919;-66
2021/08/27 16:11:29;;;;;;;;;;;;;;;;;;5094743;28;19927;-66
2021/08/27 16:14:13;;;;;;;;;;;;;;;;;;5094696;28;20387;-67
2021/08/27 16:16:57;;;;;;;;;;;;;;;;;;5094392;28;19935;-67
2021/08/27 16:19:41;;;;;;;;;;;;;;;;;;5094338;28;19919;-67
2021/08/27 16:22:26;;;;;;;;;;;;;;;;;;5094436;28;19923;-67
2021/08/27 16:25:12;;;;;;;;;;;;;;;;;;5094436;28;19920;-66
2021/08/27 16:27:56;;;;;;;;;;;;;;;;;;5094534;28;19923;-66
2021/08/27 16:30:41;;;;;;;;;;;;;;;;;;5094285;28;19920;-67
2021/08/27 16:33:25;;;;;;;;;;;;;;;;;;5094329;28;19927;-67
2021/08/27 16:36:09;;;;;;;;;;;;;;;;;;5094399;28;19919;-67
2021/08/27 16:38:54;;;;;;;;;;;;;;;;;;5094195;28;19919;-67
2021/08/27 16:41:38;;;;;;;;;;;;;;;;;;5094128;28;20390;-67
2021/08/27 16:44:22;;;;;;;;;;;;;;;;;;5094209;28;20398;-66
2021/08/27 16:47:07;;;;;;;;;;;;;;;;;;5094200;28;19919;-68
2021/08/27 16:49:51;;;;;;;;;;;;;;;;;;5093971;28;19919;-68
2021/08/27 16:52:35;;;;;;;;;;;;;;;;;;5093968;28;20414;-67
2021/08/27 16:55:20;;;;;;;;;;;;;;;;;;5094218;28;19919;-67
2021/08/27 16:58:04;;;;;;;;;;;;;;;;;;5093953;28;20375;-67
2021/08/27 17:00:49;;;;;;;;;;;;;;;;;;5099203;28;19919;-67
2021/08/27 17:03:34;;;;;;;;;;;;;;;;;;5093910;28;19923;-67
2021/08/27 17:06:18;;;;;;;;;;;;;;;;;;5093635;28;19935;-66
2021/08/27 17:09:02;;;;;;;;;;;;;;;;;;5096244;28;19919;-66
2021/08/27 17:11:46;;;;;;;;;;;;;;;;;;5093685;28;19919;-66
2021/08/27 17:14:30;;;;;;;;;;;;;;;;;;5093647;28;19915;-66
2021/08/27 17:17:14;;;;;;;;;;;;;;;;;;5093242;28;19919;-67
2021/08/27 17:19:58;;;;;;;;;;;;;;;;;;5086941;28;20304;-67
2021/08/27 17:22:43;;;;;;;;;;;;;;;;;;5088462;28;20325;-67
2021/08/27 17:25:27;;;;;;;;;;;;;;;;;;5090400;28;19920;-69
2021/08/27 17:28:17;;;;;;;;;;;;;;;;;;5085553;28;19923;-70
2021/08/27 17:31:01;;;;;;;;;;;;;;;;;;5088871;28;19919;-70
2021/08/27 17:33:45;;;;;;;;;;;;;;;;;;5092123;28;20413;-70
2021/08/27 17:36:31;;;;;;;;;;;;;;;;;;5093047;28;19919;-70
2021/08/27 17:39:15;;;;;;;;;;;;;;;;;;5092713;28;19919;-70
2021/08/27 17:42:00;;;;;;;;;;;;;;;;;;5077345;28;19923;-70
2021/08/27 17:44:45;;;;;;;;;;;;;;;;;;5072326;28;19920;-69
2021/08/27 17:47:29;;;;;;;;;;;;;;;;;;5076777;28;19919;-69
2021/08/27 17:50:13;;;;;;;;;;;;;;;;;;5081009;28;19924;-69
2021/08/27 17:52:57;;;;;;;;;;;;;;;;;;5081503;28;19920;-69
2021/08/27 17:55:41;;;;;;;;;;;;;;;;;;5072164;28;20556;-69
2021/08/27 17:58:25;;;;;;;;;;;;;;;;;;5080452;28;19932;-69
2021/08/27 18:01:09;;;;;;;;;;;;;;;;;;5081783;28;19983;-69
2021/08/27 18:03:54;;;;;;;;;;;;;;;;;;5074725;28;19924;-69
2021/08/27 18:06:38;;;;;;;;;;;;;;;;;;5096020;28;19919;-69
2021/08/27 18:09:22;;;;;;;;;;;;;;;;;;5092507;28;20406;-69
2021/08/27 18:12:08;;;;;;;;;;;;;;;;;;5092189;28;19919;-69
2021/08/27 18:14:52;;;;;;;;;;;;;;;;;;5092671;28;19923;-69
2021/08/27 18:17:36;;;;;;;;;;;;;;;;;;5092339;28;19919;-69
2021/08/27 18:20:21;;;;;;;;;;;;;;;;;;5092574;28;20304;-69
2021/08/27 18:23:05;;;;;;;;;;;;;;;;;;5092313;28;19930;-70
2021/08/27 18:25:49;;;;;;;;;;;;;;;;;;5091833;28;19926;-69
2021/08/27 18:28:33;;;;;;;;;;;;;;;;;;5088993;28;20390;-70
2021/08/27 18:31:17;;;;;;;;;;;;;;;;;;5095776;28;19923;-69
2021/08/27 18:34:01;;;;;;;;;;;;;;;;;;5090593;28;19919;-69
2021/08/27 18:36:47;;;;;;;;;;;;;;;;;;5087725;28;19919;-69
2021/08/27 18:39:32;;;;;;;;;;;;;;;;;;5074919;28;19919;-69
2021/08/27 18:42:16;;;;;;;;;;;;;;;;;;5077770;28;19923;-70